KAPCKVCB

Guest
Details From KAPC - Napa Co
To KVCB - NUT TREE
Flight Number -
Tags generated
Created
Modified
Stats Distance 19 nm / 35 km
Max Altitude 1,600 ft / 488 m
Waypoints 3
Social Downloads 2
Likes 0
Share VATSIM

Download

Looking for another format? Having issues loading an existing format? Contact us
Advertisement - Login to hide

Notes

Basic altitude profile: - Ascent Rate: 500ft/min - Ascent Speed: 125kts - Cruise Altitude: 1500ft - Cruise Speed: 140kts - Descent Rate: 500ft/min - Descent Speed: 125kts Options: - Use NATs: yes - Use PACOTS: yes - Use low airways: yes - Use high airways: yes

Route

KAPC CORDD KVCB

ID Type Via Altitude Latitude Longitude Leg Dist Tot Dist Heading (true) Name
O KAPC APT - 0 ft / 0 m 38.21339˚ -122.28049˚ - 0 nm - Napa Co
CORDD FIX - 1,600 ft / 488 m 38.21150˚ -122.18055˚ 4 nm 4 nm 91° / 91° -
O KVCB APT - 0 ft / 0 m 38.37778˚ -121.96158˚ 14 nm 19 nm 46° / 46° NUT TREE

Altitude Profile

Advertisement - Login to hide

KAPC

Details ICAO KAPC (APC)
Name Napa Co
Region United States
Timezone America/Los_Angeles (UTC-8.0)
Stats Elevation 35 ft / 11 m (AMSL)
Location 38.213392° -122.280489°
Runways 3
Magnetic Variation 13.579° E

METAR

KAPC 140754Z AUTO 00000KT CLR 02/01 A3008 RMK AO2 SLP178 T00170011 401561022 $

Decode

TAF

Not found

Departure Runways

ID Width Length Bearing (true) Bearing (mag) Surface Threshold Offset Overrun Length
06 151 ft / 46 m 4,998 ft / 1,523 m 76.68° 63.10° Concrete 0 ft / 0 m 0 ft / 0 m
18L 75 ft / 23 m 2,514 ft / 766 m 200.64° 187.06° Asphalt 0 ft / 0 m 0 ft / 0 m
18R 151 ft / 46 m 5,940 ft / 1,810 m 200.66° 187.08° Asphalt 0 ft / 0 m 0 ft / 0 m
24 151 ft / 46 m 4,998 ft / 1,523 m 256.70° 243.12° Concrete 0 ft / 0 m 0 ft / 0 m
36L 151 ft / 46 m 5,940 ft / 1,810 m 20.66° 7.08° Asphalt 0 ft / 0 m 151 ft / 46 m
36R 75 ft / 23 m 2,514 ft / 766 m 20.64° 7.06° Asphalt 0 ft / 0 m 0 ft / 0 m

KVCB

Details ICAO KVCB
Name NUT TREE
Region United States
Timezone America/Los_Angeles (UTC-8.0)
Stats Elevation 117 ft / 36 m (AMSL)
Location 38.377778° -121.961577°
Runways 1
Magnetic Variation 13.565° E

METAR

KVCB 140753Z AUTO 00000KT 10SM CLR 03/02 A3009 RMK AO2 SLP188 T00330017 401721033

Decode

TAF

Not found

Destination Runways

ID Width Length Bearing (true) Bearing (mag) Surface Threshold Offset Overrun Length
02 75 ft / 23 m 4,700 ft / 1,433 m 33.55° 19.99° Asphalt 0 ft / 0 m 350 ft / 107 m
20 75 ft / 23 m 4,700 ft / 1,433 m 213.56° 200.00° Asphalt 0 ft / 0 m 0 ft / 0 m

Popular Alternatives